createdAt,value
2019-04-14T00:00:27.639Z,9.62
2019-04-14T00:03:06.677Z,9.61
2019-04-14T00:05:40.873Z,9.59
2019-04-14T00:08:13.310Z,9.62
2019-04-14T00:10:44.848Z,9.64
2019-04-14T00:13:17.406Z,9.54
2019-04-14T00:15:51.625Z,9.60
2019-04-14T00:18:23.010Z,9.64
2019-04-14T00:20:55.571Z,9.50
2019-04-14T00:23:28.253Z,9.48
2019-04-14T00:26:27.123Z,9.47
2019-04-14T00:29:00.074Z,9.52
2019-04-14T00:31:32.892Z,9.60
2019-04-14T00:34:07.247Z,9.45
2019-04-14T00:36:41.543Z,9.45
2019-04-14T00:39:21.068Z,9.54
2019-04-14T00:41:58.375Z,9.52
2019-04-14T00:44:41.095Z,9.47
2019-04-14T00:47:26.785Z,9.53
2019-04-14T00:49:59.362Z,9.45
2019-04-14T00:52:31.895Z,9.47
2019-04-14T00:55:03.613Z,9.48
2019-04-14T00:57:35.535Z,9.45
2019-04-14T01:00:08.288Z,9.39
2019-04-14T01:02:40.887Z,9.20
2019-04-14T01:05:15.325Z,9.20
2019-04-14T01:07:47.935Z,9.32
2019-04-14T01:10:21.317Z,9.28
2019-04-14T01:12:53.926Z,9.24
2019-04-14T01:15:26.733Z,9.31
2019-04-14T01:17:59.218Z,9.29
2019-04-14T01:20:31.826Z,9.20
2019-04-14T01:23:04.187Z,9.20
2019-04-14T01:25:36.795Z,9.26
2019-04-14T01:28:08.983Z,9.26
2019-04-14T01:30:41.472Z,9.23
2019-04-14T01:33:14.038Z,9.23
2019-04-14T01:35:46.609Z,9.13
2019-04-14T01:38:19.029Z,9.15
2019-04-14T01:40:51.019Z,9.15
2019-04-14T01:43:23.509Z,9.11
2019-04-14T01:46:05.247Z,9.06
2019-04-14T01:48:28.348Z,9.17
2019-04-14T01:51:17.791Z,9.11
2019-04-14T01:53:53.805Z,9.18
2019-04-14T01:56:27.352Z,9.18
2019-04-14T01:59:00.280Z,9.18
2019-04-14T02:01:34.577Z,9.18
2019-04-14T02:04:07.267Z,9.09
2019-04-14T02:06:39.868Z,8.98
2019-04-14T02:09:12.150Z,8.98
2019-04-14T02:11:44.512Z,8.93
2019-04-14T02:14:16.863Z,8.90
2019-04-14T02:16:53.582Z,8.83
2019-04-14T02:19:22.026Z,8.77
2019-04-14T02:21:54.105Z,8.74
2019-04-14T02:24:26.343Z,8.74
2019-04-14T02:26:59.027Z,8.64
2019-04-14T02:29:31.780Z,8.76
2019-04-14T02:35:04.550Z,8.68
2019-04-14T02:37:34.762Z,8.62
2019-04-14T02:40:08.781Z,8.64
2019-04-14T02:42:40.264Z,8.60
2019-04-14T02:45:19.161Z,8.60
2019-04-14T02:50:24.474Z,8.57
2019-04-14T02:53:01.601Z,8.55
2019-04-14T02:55:23.410Z,8.47
2019-04-14T02:58:04.001Z,8.53
2019-04-14T03:00:41.426Z,8.53
2019-04-14T03:03:10.466Z,8.53
2019-04-14T03:05:44.843Z,8.49
2019-04-14T03:08:18.852Z,8.44
2019-04-14T03:10:47.797Z,8.36
2019-04-14T03:13:26.404Z,8.36
2019-04-14T03:21:30.586Z,8.37
2019-04-14T03:24:18.546Z,8.37
2019-04-14T03:26:54.132Z,8.46
2019-04-14T03:29:43.798Z,8.39
2019-04-14T03:34:42.204Z,8.50
2019-04-14T03:42:19.842Z,8.34
2019-04-14T03:44:48.926Z,8.38
2019-04-14T03:47:25.016Z,8.32
2019-04-14T03:49:52.542Z,8.38
2019-04-14T03:52:31.963Z,8.53
2019-04-14T03:54:52.490Z,8.35
2019-04-14T03:57:08.965Z,8.46
2019-04-14T03:59:41.313Z,8.39
2019-04-14T04:02:13.906Z,8.39
2019-04-14T04:04:46.617Z,8.39
2019-04-14T04:07:19.157Z,8.37
2019-04-14T04:10:05.097Z,8.37
2019-04-14T04:12:37.801Z,8.35
2019-04-14T04:15:10.502Z,8.28
2019-04-14T04:17:43.573Z,8.25
2019-04-14T04:20:17.425Z,8.18
2019-04-14T04:22:56.638Z,8.26
2019-04-14T04:25:42.173Z,8.27
2019-04-14T04:28:27.896Z,8.15
2019-04-14T04:31:15.612Z,8.20
2019-04-14T04:33:50.043Z,8.17
2019-04-14T04:36:27.032Z,8.14
2019-04-14T04:39:00.159Z,8.17
2019-04-14T04:41:31.841Z,8.19
2019-04-14T04:44:03.187Z,8.25
2019-04-14T04:46:35.134Z,8.22
2019-04-14T04:49:14.225Z,8.28
2019-04-14T04:51:40.033Z,8.35
2019-04-14T04:54:12.503Z,8.30
2019-04-14T04:56:44.893Z,8.37
2019-04-14T04:59:17.542Z,8.37
2019-04-14T05:01:49.411Z,8.35
2019-04-14T05:04:22.028Z,8.27
2019-04-14T05:07:01.498Z,8.33
2019-04-14T05:09:39.016Z,8.42
2019-04-14T05:12:26.271Z,8.45
2019-04-14T05:15:03.538Z,8.53
2019-04-14T05:17:40.845Z,8.72
2019-04-14T05:20:13.712Z,8.62
2019-04-14T05:22:46.202Z,8.60
2019-04-14T05:25:18.893Z,8.72
2019-04-14T05:27:51.625Z,8.72
2019-04-14T05:30:24.048Z,8.68
2019-04-14T05:32:56.522Z,8.63
2019-04-14T05:35:29.114Z,8.74
2019-04-14T05:38:01.764Z,8.62
2019-04-14T05:40:34.314Z,8.68
2019-04-14T05:43:06.731Z,8.63
2019-04-14T05:45:39.430Z,8.68
2019-04-14T05:48:11.835Z,8.68
2019-04-14T05:50:44.391Z,8.74
2019-04-14T05:53:15.903Z,8.69
2019-04-14T05:55:48.206Z,8.65
2019-04-14T05:58:20.682Z,8.75
2019-04-14T06:00:53.167Z,8.71
2019-04-14T06:03:25.935Z,8.71
2019-04-14T06:05:57.339Z,8.71
2019-04-14T06:08:28.774Z,8.71
2019-04-14T06:11:00.371Z,8.68
2019-04-14T06:13:31.918Z,8.68
2019-04-14T06:16:03.313Z,8.66
2019-04-14T06:18:34.794Z,8.61
2019-04-14T06:21:06.327Z,8.61
2019-04-14T06:23:37.717Z,8.80
2019-04-14T06:26:09.156Z,8.93
2019-04-14T06:28:40.683Z,8.93
2019-04-14T06:31:19.483Z,8.92
2019-04-14T06:34:08.659Z,9.00
2019-04-14T06:36:53.879Z,9.00
2019-04-14T06:39:30.180Z,9.07
2019-04-14T06:42:01.609Z,9.03
2019-04-14T06:44:33.105Z,8.94
2019-04-14T06:47:04.519Z,9.07
2019-04-14T06:49:35.850Z,9.23
2019-04-14T06:52:07.372Z,9.20
2019-04-14T06:54:38.938Z,9.20
2019-04-14T06:57:10.421Z,9.21
2019-04-14T06:59:41.664Z,9.40
2019-04-14T07:02:13.165Z,9.40
2019-04-14T07:04:44.734Z,9.38
2019-04-14T07:07:16.152Z,9.33
2019-04-14T07:09:47.591Z,9.46
2019-04-14T07:12:19.095Z,9.35
2019-04-14T07:14:50.512Z,9.57
2019-04-14T07:17:22.083Z,9.57
2019-04-14T07:20:02.046Z,9.39
2019-04-14T07:22:26.783Z,9.39
2019-04-14T07:24:58.235Z,9.35
2019-04-14T07:27:29.643Z,9.35
2019-04-14T07:30:03.552Z,9.14
2019-04-14T07:32:48.808Z,9.14
2019-04-14T07:35:24.943Z,9.09
2019-04-14T07:38:09.730Z,8.97
2019-04-14T07:40:45.525Z,8.91
2019-04-14T07:43:35.184Z,9.02
2019-04-14T07:46:20.163Z,9.09
2019-04-14T07:48:55.978Z,8.97
2019-04-14T07:51:35.146Z,9.15
2019-04-14T07:54:20.268Z,9.13
2019-04-14T07:56:56.252Z,9.11
2019-04-14T07:59:32.163Z,9.04
2019-04-14T08:02:10.921Z,9.08
2019-04-14T08:04:44.214Z,9.13
2019-04-14T08:07:15.632Z,9.05
2019-04-14T08:09:47.249Z,8.97
2019-04-14T08:12:18.779Z,8.97
2019-04-14T08:14:50.181Z,9.02
2019-04-14T08:17:21.564Z,9.08
2019-04-14T08:19:52.926Z,9.07
2019-04-14T08:22:24.245Z,9.07
2019-04-14T08:24:55.647Z,9.20
2019-04-14T08:27:27.061Z,9.10
2019-04-14T08:29:58.479Z,9.10
2019-04-14T08:32:31.043Z,9.25
2019-04-14T08:35:02.470Z,9.33
2019-04-14T08:37:33.858Z,9.28
2019-04-14T08:40:05.635Z,9.24
2019-04-14T08:42:38.716Z,9.35
2019-04-14T08:45:11.961Z,9.38
2019-04-14T08:47:54.276Z,9.48
2019-04-14T08:50:39.250Z,9.40
2019-04-14T08:53:07.937Z,9.11
2019-04-14T08:55:57.457Z,9.11
2019-04-14T08:58:42.326Z,9.10
2019-04-14T09:01:24.666Z,9.19
2019-04-14T09:04:00.470Z,9.06
2019-04-14T09:06:39.352Z,8.97
2019-04-14T09:09:12.369Z,8.92
2019-04-14T09:11:45.475Z,8.99
2019-04-14T09:14:16.862Z,9.02
2019-04-14T09:16:48.272Z,9.06
2019-04-14T09:19:19.733Z,8.99
2019-04-14T09:21:51.231Z,9.01
2019-04-14T09:24:22.663Z,8.97
2019-04-14T09:26:54.116Z,8.96
2019-04-14T09:29:25.508Z,9.02
2019-04-14T09:31:57.059Z,9.05
2019-04-14T09:34:28.445Z,9.09
2019-04-14T09:36:59.886Z,9.18
2019-04-14T09:39:31.279Z,9.23
2019-04-14T09:42:02.996Z,9.23
2019-04-14T09:44:34.686Z,9.29
2019-04-14T09:47:06.111Z,9.31
2019-04-14T09:49:37.578Z,9.32
2019-04-14T09:52:09.282Z,9.41
2019-04-14T09:54:40.739Z,9.34
2019-04-14T09:57:12.225Z,9.36
2019-04-14T09:59:44.850Z,9.46
2019-04-14T10:02:16.478Z,9.59
2019-04-14T10:04:47.869Z,9.59
2019-04-14T10:07:19.326Z,9.68
2019-04-14T10:09:50.872Z,9.66
2019-04-14T10:12:22.595Z,9.73
2019-04-14T10:14:54.313Z,9.73
2019-04-14T10:17:25.726Z,9.64
2019-04-14T10:19:57.181Z,9.67
2019-04-14T10:22:34.231Z,9.52
2019-04-14T10:25:01.886Z,9.76
2019-04-14T10:27:33.298Z,9.84
2019-04-14T10:30:07.078Z,9.77
2019-04-14T10:32:38.776Z,9.76
2019-04-14T10:35:10.240Z,9.73
2019-04-14T10:37:41.655Z,9.85
2019-04-14T10:40:13.205Z,9.85
2019-04-14T10:42:45.246Z,10.04
2019-04-14T10:45:18.316Z,10.07
2019-04-14T10:47:50.049Z,10.05
2019-04-14T10:50:30.679Z,9.97
2019-04-14T10:52:54.727Z,9.91
2019-04-14T10:55:26.106Z,10.02
2019-04-14T10:57:57.524Z,10.02
2019-04-14T11:00:28.971Z,9.69
2019-04-14T11:03:00.744Z,9.52
2019-04-14T11:05:33.842Z,9.29
2019-04-14T11:08:05.422Z,9.29
2019-04-14T11:10:37.288Z,9.54
2019-04-14T11:13:08.820Z,9.64
2019-04-14T11:15:41.287Z,9.55
2019-04-14T11:18:13.212Z,9.56
2019-04-14T11:20:44.638Z,9.58
2019-04-14T11:23:16.165Z,9.65
2019-04-14T11:25:48.731Z,9.66
2019-04-14T11:28:20.226Z,9.61
2019-04-14T11:30:51.716Z,9.78
2019-04-14T11:33:34.237Z,9.82
2019-04-14T11:36:25.307Z,9.77
2019-04-14T11:38:59.587Z,9.77
2019-04-14T11:41:31.180Z,9.88
2019-04-14T11:44:02.676Z,10.01
2019-04-14T11:46:34.207Z,10.00
2019-04-14T11:49:05.744Z,10.06
2019-04-14T11:51:37.267Z,9.97
2019-04-14T11:54:08.743Z,10.08
2019-04-14T11:56:40.099Z,10.06
2019-04-14T11:59:11.586Z,10.02
2019-04-14T12:01:50.405Z,9.99
2019-04-14T12:04:29.628Z,9.98
2019-04-14T12:07:08.362Z,10.05
2019-04-14T12:09:47.181Z,10.05
2019-04-14T12:12:18.726Z,10.08
2019-04-14T12:14:50.256Z,10.20
2019-04-14T12:17:21.735Z,10.13
2019-04-14T12:19:53.356Z,9.84
2019-04-14T12:22:24.917Z,9.55
2019-04-14T12:24:56.362Z,9.41
2019-04-14T12:27:27.813Z,9.40
2019-04-14T12:29:59.236Z,9.48
2019-04-14T12:32:30.801Z,9.64
2019-04-14T12:35:03.813Z,9.54
2019-04-14T12:37:36.369Z,9.62
2019-04-14T12:40:08.854Z,9.63
2019-04-14T12:42:44.721Z,9.67
2019-04-14T12:45:34.343Z,9.86
2019-04-14T12:48:07.498Z,9.94
2019-04-14T12:50:40.570Z,9.94
2019-04-14T12:53:11.950Z,9.99
2019-04-14T12:55:43.394Z,10.09
2019-04-14T12:58:16.390Z,10.12
2019-04-14T13:00:52.417Z,10.14
2019-04-14T13:03:24.450Z,10.14
2019-04-14T13:05:55.876Z,10.21
2019-04-14T13:08:27.312Z,10.26
2019-04-14T13:10:58.723Z,10.30
2019-04-14T13:13:30.131Z,10.37
2019-04-14T13:16:01.709Z,10.38
2019-04-14T13:18:33.161Z,10.41
2019-04-14T13:21:05.596Z,10.35
2019-04-14T13:23:36.983Z,10.43
2019-04-14T13:26:08.402Z,10.47
2019-04-14T13:28:39.790Z,10.42
2019-04-14T13:31:12.250Z,10.44
2019-04-14T13:33:43.758Z,10.38
2019-04-14T13:36:15.182Z,10.48
2019-04-14T13:38:46.579Z,10.52
2019-04-14T13:41:18.081Z,10.54
2019-04-14T13:43:49.640Z,10.53
2019-04-14T13:46:21.125Z,10.49
2019-04-14T13:48:52.588Z,10.50
2019-04-14T13:51:24.139Z,10.59
2019-04-14T13:53:55.527Z,10.64
2019-04-14T13:56:27.129Z,10.58
2019-04-14T13:58:58.603Z,10.57
2019-04-14T14:01:30.238Z,10.54
2019-04-14T14:04:01.679Z,10.61
2019-04-14T14:06:33.246Z,10.57
2019-04-14T14:09:07.683Z,10.54
2019-04-14T14:11:40.922Z,10.57
2019-04-14T14:14:17.018Z,10.59
2019-04-14T14:17:02.028Z,10.55
2019-04-14T14:19:35.129Z,10.59
2019-04-14T14:22:11.299Z,10.57
2019-04-14T14:24:44.321Z,10.58
2019-04-14T14:27:15.715Z,10.60
2019-04-14T14:29:47.111Z,10.58
2019-04-14T14:32:26.030Z,10.62
2019-04-14T14:34:57.417Z,10.66
2019-04-14T14:37:29.137Z,10.63
2019-04-14T14:40:00.556Z,10.62
2019-04-14T14:42:32.134Z,10.69
2019-04-14T14:45:05.823Z,10.67
2019-04-14T14:47:38.694Z,10.62
2019-04-14T14:50:20.950Z,10.58
2019-04-14T14:52:52.508Z,10.63
2019-04-14T14:55:24.092Z,10.71
2019-04-14T14:57:55.595Z,10.71
2019-04-14T15:00:28.680Z,10.58
2019-04-14T15:03:00.247Z,10.60
2019-04-14T15:05:31.617Z,10.65
2019-04-14T15:08:03.519Z,10.75
2019-04-14T15:10:34.863Z,10.72
2019-04-14T15:13:06.363Z,10.77
2019-04-14T15:15:37.808Z,10.68
2019-04-14T15:18:09.379Z,10.69
2019-04-14T15:20:40.849Z,10.67
2019-04-14T15:23:24.270Z,10.68
2019-04-14T15:25:45.480Z,10.61
2019-04-14T15:28:17.081Z,10.57
2019-04-14T15:30:48.512Z,10.63
2019-04-14T15:33:19.994Z,10.55
2019-04-14T15:35:51.454Z,10.54
2019-04-14T15:38:22.906Z,10.56
2019-04-14T15:40:54.287Z,10.53
2019-04-14T15:43:25.672Z,10.49
2019-04-14T15:45:57.096Z,10.50
2019-04-14T15:48:28.573Z,10.46
2019-04-14T15:51:00.033Z,10.39
2019-04-14T15:53:38.327Z,10.44
2019-04-14T15:56:05.746Z,10.43
2019-04-14T15:58:38.936Z,10.47
2019-04-14T16:01:17.878Z,10.49
2019-04-14T16:04:00.379Z,10.51
2019-04-14T16:06:36.698Z,10.51
2019-04-14T16:09:25.302Z,10.46
2019-04-14T16:11:58.567Z,10.42
2019-04-14T16:14:34.412Z,10.48
2019-04-14T16:17:10.011Z,10.48
2019-04-14T16:19:50.667Z,10.38
2019-04-14T16:22:22.047Z,10.43
2019-04-14T16:24:53.566Z,10.46
2019-04-14T16:27:43.125Z,10.35
2019-04-14T16:30:19.632Z,10.30
2019-04-14T16:33:09.278Z,10.28
2019-04-14T16:35:41.665Z,10.33
2019-04-14T16:38:13.348Z,10.27
2019-04-14T16:40:45.089Z,10.31
2019-04-14T16:43:16.614Z,10.24
2019-04-14T16:45:48.213Z,10.23
2019-04-14T16:48:20.101Z,10.23
2019-04-14T16:50:51.798Z,10.21
2019-04-14T16:53:27.755Z,10.10
2019-04-14T16:56:03.940Z,10.16
2019-04-14T16:58:37.034Z,10.18
2019-04-14T17:01:10.310Z,10.18
2019-04-14T17:03:42.008Z,10.18
2019-04-14T17:06:13.638Z,10.24
2019-04-14T17:08:46.141Z,10.16
2019-04-14T17:11:17.926Z,10.08
2019-04-14T17:13:51.149Z,10.06
2019-04-14T17:16:40.529Z,10.07
2019-04-14T17:19:21.364Z,10.06
2019-04-14T17:21:54.766Z,10.12
2019-04-14T17:24:44.451Z,10.00
2019-04-14T17:27:20.651Z,10.01
2019-04-14T17:29:59.925Z,9.94
2019-04-14T17:32:38.936Z,9.89
2019-04-14T17:35:12.185Z,9.86
2019-04-14T17:38:01.638Z,9.85
2019-04-14T17:40:35.208Z,9.82
2019-04-14T17:43:08.543Z,9.75
2019-04-14T17:45:50.870Z,9.72
2019-04-14T17:48:41.533Z,9.60
2019-04-14T17:51:31.259Z,9.60
2019-04-14T17:54:04.452Z,9.65
2019-04-14T17:56:37.642Z,9.64
2019-04-14T17:59:27.144Z,9.63
2019-04-14T18:02:02.995Z,9.53
2019-04-14T18:04:51.327Z,9.53
2019-04-14T18:07:24.538Z,9.47
2019-04-14T18:10:06.797Z,9.47
2019-04-14T18:12:42.809Z,9.40
2019-04-14T18:15:18.823Z,9.37
2019-04-14T18:17:54.710Z,9.32
2019-04-14T18:20:27.946Z,9.31
2019-04-14T18:22:59.662Z,9.37
2019-04-14T18:25:31.310Z,9.31
2019-04-14T18:28:10.419Z,9.30
2019-04-14T18:30:43.606Z,9.34
2019-04-14T18:33:28.849Z,9.34
2019-04-14T18:36:02.076Z,9.38
2019-04-14T18:38:44.326Z,9.25
2019-04-14T18:41:17.557Z,9.22
2019-04-14T18:43:53.727Z,9.19
2019-04-14T18:46:27.220Z,9.15
2019-04-14T18:49:00.440Z,9.08
2019-04-14T18:51:34.581Z,9.05
2019-04-14T18:54:07.900Z,8.94
2019-04-14T18:56:40.960Z,8.94
2019-04-14T18:59:23.031Z,8.90
2019-04-14T19:01:56.102Z,8.84
2019-04-14T19:04:27.648Z,8.91
2019-04-14T19:06:59.260Z,8.88
2019-04-14T19:09:31.849Z,8.76
2019-04-14T19:12:20.184Z,8.75
2019-04-14T19:14:53.308Z,8.80
2019-04-14T19:17:29.744Z,8.62
2019-04-14T19:20:02.480Z,8.62
2019-04-14T19:22:34.331Z,8.64
2019-04-14T19:25:08.331Z,8.55
2019-04-14T19:27:40.321Z,8.47
2019-04-14T19:30:12.279Z,8.48
2019-04-14T19:32:44.120Z,8.48
2019-04-14T19:35:15.488Z,8.48
2019-04-14T19:37:46.986Z,8.28
2019-04-14T19:40:18.530Z,8.28
2019-04-14T19:42:50.226Z,8.17
2019-04-14T19:45:21.665Z,8.05
2019-04-14T19:47:53.184Z,7.99
2019-04-14T19:50:24.610Z,7.90
2019-04-14T19:52:56.193Z,7.77
2019-04-14T19:55:27.610Z,7.76
2019-04-14T19:57:59.145Z,7.71
2019-04-14T20:00:30.743Z,7.60
2019-04-14T20:03:02.335Z,7.54
2019-04-14T20:05:33.761Z,7.41
2019-04-14T20:08:05.269Z,7.39
2019-04-14T20:10:36.811Z,7.32
2019-04-14T20:13:08.400Z,7.30
2019-04-14T20:15:57.603Z,7.21
2019-04-14T20:18:39.432Z,7.20
2019-04-14T20:21:12.696Z,7.15
2019-04-14T20:23:58.076Z,7.13
2019-04-14T20:26:31.078Z,7.12
2019-04-14T20:29:04.113Z,7.12
2019-04-14T20:31:40.219Z,7.08
2019-04-14T20:34:11.691Z,7.01
2019-04-14T20:36:43.241Z,6.97
2019-04-14T20:39:15.105Z,6.92
2019-04-14T20:41:46.547Z,6.94
2019-04-14T20:44:18.205Z,6.93
2019-04-14T20:46:49.599Z,6.90
2019-04-14T20:49:21.043Z,6.89
2019-04-14T20:51:52.506Z,6.83
2019-04-14T20:54:24.090Z,6.83
2019-04-14T20:56:55.594Z,6.81
2019-04-14T20:59:27.140Z,6.80
2019-04-14T21:02:15.396Z,6.81
2019-04-14T21:04:48.413Z,6.82
2019-04-14T21:07:21.441Z,6.75
2019-04-14T21:09:57.255Z,6.75
2019-04-14T21:12:39.323Z,6.76
2019-04-14T21:15:15.205Z,6.78
2019-04-14T21:17:54.274Z,6.82
2019-04-14T21:20:27.383Z,6.82
2019-04-14T21:23:00.387Z,6.76
2019-04-14T21:25:34.505Z,6.84
2019-04-14T21:28:07.508Z,6.77
2019-04-14T21:30:55.845Z,6.67
2019-04-14T21:33:41.103Z,6.58
2019-04-14T21:36:14.144Z,6.53
2019-04-14T21:39:03.266Z,6.53
2019-04-14T21:41:37.448Z,6.45
2019-04-14T21:44:08.844Z,6.46
2019-04-14T21:46:40.254Z,6.49
2019-04-14T21:49:11.653Z,6.42
2019-04-14T21:51:47.780Z,6.40
2019-04-14T21:54:19.535Z,6.43
2019-04-14T21:57:08.808Z,6.42
2019-04-14T21:59:56.977Z,6.38
2019-04-14T22:02:45.945Z,6.43
2019-04-14T22:05:35.172Z,6.39
2019-04-14T22:08:17.483Z,6.36
2019-04-14T22:10:50.480Z,6.41
2019-04-14T22:13:21.970Z,6.36
2019-04-14T22:15:53.371Z,6.32
2019-04-14T22:18:24.843Z,6.27
2019-04-14T22:20:56.243Z,6.32
2019-04-14T22:23:27.652Z,6.32
2019-04-14T22:25:59.165Z,6.31
2019-04-14T22:28:30.666Z,6.30
2019-04-14T22:31:02.399Z,6.29
2019-04-14T22:33:33.797Z,6.19
2019-04-14T22:36:05.579Z,6.23
2019-04-14T22:38:37.030Z,6.25
2019-04-14T22:41:08.557Z,6.20
2019-04-14T22:43:40.107Z,6.25
2019-04-14T22:46:11.487Z,6.22
2019-04-14T22:48:42.976Z,6.20
2019-04-14T22:51:14.414Z,6.15
2019-04-14T22:53:45.810Z,6.17
2019-04-14T22:56:17.196Z,6.21
2019-04-14T22:58:48.644Z,6.20
2019-04-14T23:01:24.726Z,6.17
2019-04-14T23:03:57.765Z,6.18
2019-04-14T23:06:43.349Z,6.17
2019-04-14T23:09:22.230Z,6.16
2019-04-14T23:11:57.735Z,6.18
2019-04-14T23:14:33.602Z,6.16
2019-04-14T23:17:09.356Z,6.18
2019-04-14T23:19:42.416Z,6.16
2019-04-14T23:22:33.873Z,6.15
2019-04-14T23:25:06.285Z,6.11
2019-04-14T23:27:37.807Z,6.08
2019-04-14T23:30:09.898Z,6.08
2019-04-14T23:32:41.370Z,6.13
2019-04-14T23:35:12.759Z,6.15
2019-04-14T23:37:44.146Z,6.14
2019-04-14T23:40:15.558Z,6.12
2019-04-14T23:42:46.924Z,6.05
2019-04-14T23:45:18.407Z,6.04
2019-04-14T23:47:49.782Z,6.05
2019-04-14T23:50:22.368Z,5.96
2019-04-14T23:52:53.767Z,5.94
2019-04-14T23:55:25.169Z,5.91
2019-04-14T23:57:56.533Z,5.90
